createdAt,value
2024-04-18T00:01:53.467Z,100.00
2024-04-18T00:04:23.572Z,100.00
2024-04-18T00:07:02.967Z,100.00
2024-04-18T00:09:32.825Z,100.00
2024-04-18T00:12:00.029Z,100.00
2024-04-18T00:14:48.161Z,100.00
2024-04-18T00:17:18.338Z,100.00
2024-04-18T00:19:48.199Z,100.00
2024-04-18T00:22:34.042Z,100.00
2024-04-18T00:25:07.400Z,100.00
2024-04-18T00:27:52.599Z,100.00
2024-04-18T00:30:42.291Z,100.00
2024-04-18T00:33:10.141Z,100.00
2024-04-18T00:35:40.398Z,100.00
2024-04-18T00:38:16.530Z,100.00
2024-04-18T00:40:47.762Z,100.00
2024-04-18T00:43:18.016Z,100.00
2024-04-18T00:45:48.339Z,100.00
2024-04-18T00:48:22.124Z,100.00
2024-04-18T00:50:52.424Z,100.00
2024-04-18T00:53:23.907Z,100.00
2024-04-18T00:55:54.371Z,100.00
2024-04-18T00:58:56.733Z,100.00
2024-04-18T01:01:27.062Z,100.00
2024-04-18T01:03:59.119Z,100.00
2024-04-18T01:06:42.521Z,100.00
2024-04-18T01:09:23.212Z,100.00
2024-04-18T01:12:11.555Z,100.00
2024-04-18T01:14:38.717Z,100.00
2024-04-18T01:17:08.819Z,100.00
2024-04-18T01:19:36.009Z,100.00
2024-04-18T01:56:49.954Z,100.00
2024-04-18T01:59:22.214Z,100.00
2024-04-18T02:01:52.642Z,100.00
2024-04-18T02:04:20.032Z,100.00
2024-04-18T02:06:51.375Z,100.00
2024-04-18T02:09:24.128Z,100.00
2024-04-18T02:11:56.609Z,100.00
2024-04-18T02:14:45.040Z,100.00
2024-04-18T02:17:12.241Z,100.00
2024-04-18T02:20:02.091Z,100.00
2024-04-18T02:22:41.710Z,100.00
2024-04-18T02:25:30.302Z,100.00
2024-04-18T02:28:00.124Z,100.00
2024-04-18T02:30:29.980Z,100.00
2024-04-18T02:33:14.774Z,100.00
2024-04-18T02:35:50.802Z,100.00
2024-04-18T02:38:36.392Z,100.00
2024-04-18T02:41:07.441Z,100.00
2024-04-18T02:43:54.946Z,100.00
2024-04-18T02:46:25.723Z,100.00
2024-04-18T02:49:11.076Z,100.00
2024-04-18T02:51:58.983Z,100.00
2024-04-18T02:54:44.644Z,100.00
2024-04-18T02:57:14.707Z,100.00
2024-04-18T02:59:44.638Z,100.00
2024-04-18T03:02:27.097Z,100.00
2024-04-18T03:05:13.046Z,100.00
2024-04-18T03:07:42.860Z,100.00
2024-04-18T03:10:10.044Z,100.00
2024-04-18T03:12:59.830Z,100.00
2024-04-18T03:15:51.251Z,100.00
2024-04-18T03:18:18.587Z,100.00
2024-04-18T03:20:55.546Z,100.00
2024-04-18T03:23:40.889Z,100.00
2024-04-18T03:26:12.185Z,100.00
2024-04-18T03:28:39.401Z,100.00
2024-04-18T03:31:12.017Z,100.00
2024-04-18T03:33:39.313Z,100.00
2024-04-18T03:36:09.794Z,100.00
2024-04-18T03:38:39.589Z,100.00
2024-04-18T03:41:09.416Z,100.00
2024-04-18T03:44:00.210Z,100.00
2024-04-18T03:46:32.695Z,100.00
2024-04-18T03:49:02.696Z,100.00
2024-04-18T03:51:31.470Z,100.00
2024-04-18T03:54:27.612Z,100.00
2024-04-18T03:57:03.260Z,100.00
2024-04-18T03:59:35.594Z,100.00
2024-04-18T04:02:05.739Z,100.00
2024-04-18T04:04:35.613Z,100.00
2024-04-18T04:07:02.874Z,100.00
2024-04-18T04:09:32.785Z,100.00
2024-04-18T04:11:59.986Z,100.00
2024-04-18T04:14:29.784Z,100.00
2024-04-18T04:16:56.966Z,100.00
2024-04-18T04:19:29.484Z,100.00
2024-04-18T04:21:57.154Z,100.00
2024-04-18T04:24:27.347Z,100.00
2024-04-18T04:27:15.540Z,100.00
2024-04-18T04:29:45.437Z,100.00
2024-04-18T04:32:21.117Z,100.00
2024-04-18T04:34:54.774Z,100.00
2024-04-18T04:37:21.982Z,100.00
2024-04-18T04:39:51.974Z,100.00
2024-04-18T04:42:19.308Z,100.00
2024-04-18T04:44:49.226Z,100.00
2024-04-18T04:47:42.756Z,100.00
2024-04-18T04:50:30.618Z,100.00
2024-04-18T04:53:12.935Z,100.00
2024-04-18T04:56:01.388Z,100.00
2024-04-18T04:58:28.726Z,100.00
2024-04-18T05:00:58.791Z,100.00
2024-04-18T05:03:38.276Z,100.00
2024-04-18T05:06:29.385Z,100.00
2024-04-18T05:09:12.606Z,100.00
2024-04-18T05:11:42.434Z,100.00
2024-04-18T05:14:28.162Z,100.00
2024-04-18T05:16:58.113Z,100.00
2024-04-18T05:19:25.357Z,100.00
2024-04-18T05:21:57.944Z,100.00
2024-04-18T05:24:35.220Z,100.00
2024-04-18T05:27:05.487Z,100.00
2024-04-18T05:29:50.854Z,100.00
2024-04-18T05:32:20.703Z,100.00
2024-04-18T05:35:09.392Z,100.00
2024-04-18T05:37:41.858Z,100.00
2024-04-18T05:40:12.702Z,100.00
2024-04-18T05:42:42.521Z,100.00
2024-04-18T05:45:12.361Z,100.00
2024-04-18T05:48:00.821Z,100.00
2024-04-18T05:50:30.696Z,100.00
2024-04-18T05:53:03.194Z,100.00
2024-04-18T05:55:52.940Z,100.00
2024-04-18T05:58:22.957Z,100.00
2024-04-18T06:00:58.690Z,100.00
2024-04-18T06:03:29.715Z,100.00
2024-04-18T06:06:00.224Z,100.00
2024-04-18T06:08:32.760Z,100.00
2024-04-18T06:11:02.557Z,100.00
2024-04-18T06:13:36.225Z,100.00
2024-04-18T06:16:06.412Z,100.00
2024-04-18T06:18:51.921Z,100.00
2024-04-18T06:21:21.842Z,100.00
2024-04-18T06:23:54.293Z,100.00
2024-04-18T06:26:24.636Z,100.00
2024-04-18T06:28:54.489Z,100.00
2024-04-18T06:31:41.566Z,100.00
2024-04-18T06:34:11.392Z,100.00
2024-04-18T06:36:41.960Z,100.00
2024-04-18T06:39:14.477Z,100.00
2024-04-18T06:41:44.371Z,100.00
2024-04-18T06:44:14.202Z,100.00
2024-04-18T06:46:52.761Z,100.00
2024-04-18T06:49:29.862Z,100.00
2024-04-18T06:51:59.723Z,100.00
2024-04-18T06:54:32.266Z,100.00
2024-04-18T06:57:02.111Z,100.00
2024-04-18T06:59:31.942Z,100.00
2024-04-18T07:02:01.771Z,100.00
2024-04-18T07:04:51.755Z,100.00
2024-04-18T07:07:21.748Z,100.00
2024-04-18T07:09:54.268Z,100.00
2024-04-18T07:12:24.123Z,100.00
2024-04-18T07:15:13.904Z,100.00
2024-04-18T07:17:47.137Z,100.00
2024-04-18T07:20:16.999Z,100.00
2024-04-18T07:23:07.084Z,100.00
2024-04-18T07:25:40.346Z,100.00
2024-04-18T07:28:29.650Z,100.00
2024-04-18T07:30:59.693Z,100.00
2024-04-18T07:33:29.695Z,100.00
2024-04-18T07:36:00.799Z,100.00
2024-04-18T07:38:31.003Z,100.00
2024-04-18T07:41:03.478Z,100.00
2024-04-18T07:43:33.273Z,100.00
2024-04-18T07:46:03.985Z,100.00
2024-04-18T07:48:34.040Z,100.00
2024-04-18T07:51:03.915Z,100.00
2024-04-18T07:53:33.732Z,100.00
2024-04-18T07:56:09.323Z,100.00
2024-04-18T09:17:22.727Z,80.25
2024-04-18T09:19:52.647Z,83.49
2024-04-18T09:22:22.752Z,83.08
2024-04-18T09:24:55.136Z,84.37
2024-04-18T09:27:25.090Z,90.36
2024-04-18T09:29:54.919Z,80.52
2024-04-18T09:32:27.989Z,78.48
2024-04-18T09:34:59.923Z,78.67
2024-04-18T09:37:31.973Z,85.76
2024-04-18T09:40:03.352Z,93.41
2024-04-18T09:42:41.838Z,99.89
2024-04-18T09:45:16.080Z,100.00
2024-04-18T09:47:50.588Z,100.00
2024-04-18T09:50:21.456Z,100.00
2024-04-18T09:52:53.275Z,100.00
2024-04-18T09:55:26.320Z,100.00
2024-04-18T09:57:59.176Z,100.00
2024-04-18T10:00:31.221Z,100.00
2024-04-18T10:03:07.247Z,100.00
2024-04-18T10:05:37.508Z,100.00
2024-04-18T10:08:08.594Z,100.00
2024-04-18T10:10:40.230Z,90.96
2024-04-18T10:13:12.240Z,79.61
2024-04-18T10:15:42.136Z,75.86
2024-04-18T10:18:22.337Z,86.05
2024-04-18T10:20:52.244Z,97.14
2024-04-18T10:23:25.114Z,94.56
2024-04-18T10:26:01.125Z,98.95
2024-04-18T10:28:32.076Z,98.82
2024-04-18T10:31:06.750Z,98.28
2024-04-18T10:33:40.185Z,98.87
2024-04-18T10:36:11.795Z,98.33
2024-04-18T10:38:46.350Z,99.30
2024-04-18T10:41:17.455Z,100.00
2024-04-18T10:43:48.254Z,100.00
2024-04-18T10:46:19.777Z,100.00
2024-04-18T10:48:55.909Z,100.00
2024-04-18T10:51:28.046Z,100.00
2024-04-18T10:53:57.884Z,100.00
2024-04-18T10:56:29.485Z,100.00
2024-04-18T10:59:00.385Z,100.00
2024-04-18T11:01:32.757Z,100.00
2024-04-18T11:04:05.352Z,100.00
2024-04-18T11:06:35.449Z,98.92
2024-04-18T11:09:05.397Z,99.97
2024-04-18T11:11:39.465Z,100.00
2024-04-18T11:14:11.737Z,100.00
2024-04-18T11:16:42.274Z,98.24
2024-04-18T11:19:17.072Z,96.07
2024-04-18T11:21:47.267Z,92.96
2024-04-18T11:24:17.385Z,85.64
2024-04-18T11:26:47.236Z,75.72
2024-04-18T11:29:17.039Z,69.34
2024-04-18T11:31:46.978Z,67.40
2024-04-18T11:34:19.964Z,63.87
2024-04-18T11:36:50.427Z,63.85
2024-04-18T11:39:21.501Z,60.03
2024-04-18T11:41:51.298Z,60.18
2024-04-18T11:44:21.096Z,61.50
2024-04-18T11:46:51.799Z,62.79
2024-04-18T11:49:24.527Z,60.11
2024-04-18T11:51:54.346Z,70.37
2024-04-18T11:54:24.285Z,58.47
2024-04-18T11:56:55.074Z,58.33
2024-04-18T11:59:36.123Z,56.59
2024-04-18T12:02:05.906Z,52.10
2024-04-18T12:04:56.338Z,48.78
2024-04-18T12:07:26.234Z,46.89
2024-04-18T12:09:55.676Z,45.47
2024-04-18T12:12:25.619Z,45.14
2024-04-18T12:14:55.958Z,45.72
2024-04-18T12:17:28.880Z,45.69
2024-04-18T12:20:20.542Z,47.52
2024-04-18T12:22:50.647Z,49.94
2024-04-18T12:25:21.240Z,49.47
2024-04-18T12:27:51.565Z,53.89
2024-04-18T12:30:34.456Z,58.31
2024-04-18T12:33:23.879Z,59.03
2024-04-18T12:35:56.617Z,60.85
2024-04-18T12:38:26.493Z,65.01
2024-04-18T12:41:05.822Z,65.74
2024-04-18T12:43:36.549Z,64.70
2024-04-18T12:46:26.545Z,65.48
2024-04-18T12:48:57.763Z,65.25
2024-04-18T12:51:30.556Z,61.81
2024-04-18T12:54:00.436Z,63.65
2024-04-18T12:56:50.144Z,67.36
2024-04-18T12:59:26.446Z,71.60
2024-04-18T13:01:56.585Z,70.43
2024-04-18T13:04:23.896Z,67.26
2024-04-18T13:06:56.560Z,66.80
2024-04-18T13:09:32.280Z,55.17
2024-04-18T13:12:02.713Z,50.21
2024-04-18T13:14:52.783Z,49.37
2024-04-18T13:17:23.589Z,49.65
2024-04-18T13:19:54.276Z,46.09
2024-04-18T13:22:26.791Z,43.35
2024-04-18T13:24:56.629Z,40.96
2024-04-18T13:27:31.432Z,39.34
2024-04-18T13:30:02.398Z,40.28
2024-04-18T13:32:36.745Z,43.14
2024-04-18T13:35:07.091Z,46.78
2024-04-18T13:37:39.748Z,48.95
2024-04-18T13:40:22.109Z,49.99
2024-04-18T13:42:58.254Z,56.89
2024-04-18T13:45:33.226Z,64.51
2024-04-18T13:48:03.966Z,73.69
2024-04-18T13:50:48.234Z,79.51
2024-04-18T13:53:20.829Z,81.88
2024-04-18T13:55:51.965Z,83.80
2024-04-18T13:58:20.479Z,86.34
2024-04-18T14:01:14.050Z,88.14
2024-04-18T14:04:04.953Z,85.99
2024-04-18T14:06:43.854Z,85.80
2024-04-18T14:09:24.983Z,84.06
2024-04-18T14:12:14.677Z,75.89
2024-04-18T14:14:44.476Z,72.58
2024-04-18T14:17:49.958Z,74.70
2024-04-18T14:20:19.830Z,67.50
2024-04-18T14:22:53.336Z,60.42
2024-04-18T14:25:26.355Z,62.07
2024-04-18T14:28:23.573Z,59.45
2024-04-18T14:31:17.697Z,58.54
2024-04-18T14:33:50.739Z,63.35
2024-04-18T14:36:20.766Z,66.19
2024-04-18T14:38:50.600Z,60.09
2024-04-18T14:41:23.424Z,59.98
2024-04-18T14:43:57.633Z,58.15
2024-04-18T14:46:29.326Z,60.44
2024-04-18T14:49:19.164Z,64.60
2024-04-18T14:51:57.623Z,58.16
2024-04-18T14:54:30.264Z,60.61
2024-04-18T14:57:02.910Z,57.56
2024-04-18T14:59:39.215Z,59.94
2024-04-18T15:02:09.500Z,67.56
2024-04-18T15:04:59.898Z,75.73
2024-04-18T15:07:30.055Z,82.24
2024-04-18T15:10:00.217Z,86.09
2024-04-18T15:12:53.108Z,93.20
2024-04-18T15:15:26.557Z,98.91
2024-04-18T15:17:56.500Z,100.00
2024-04-18T15:20:26.365Z,100.00
2024-04-18T15:23:14.667Z,100.00
2024-04-18T15:25:44.591Z,100.00
2024-04-18T15:28:14.436Z,100.00
2024-04-18T15:30:44.415Z,100.00
2024-04-18T15:33:37.242Z,100.00
2024-04-18T15:36:17.527Z,100.00
2024-04-18T15:38:53.754Z,100.00
2024-04-18T15:41:20.924Z,100.00
2024-04-18T15:43:55.520Z,100.00
2024-04-18T15:46:37.216Z,100.00
2024-04-18T15:49:10.003Z,100.00
2024-04-18T15:51:40.152Z,100.00
2024-04-18T15:54:10.284Z,100.00
2024-04-18T15:56:40.111Z,100.00
2024-04-18T15:59:32.536Z,100.00
2024-04-18T16:02:09.469Z,100.00
2024-04-18T16:04:45.827Z,100.00
2024-04-18T16:07:15.678Z,100.00
2024-04-18T16:09:54.601Z,100.00
2024-04-18T16:12:24.667Z,96.71
2024-04-18T16:15:07.255Z,94.78
2024-04-18T16:17:57.160Z,94.58
2024-04-18T16:20:27.084Z,91.06
2024-04-18T16:22:56.927Z,93.45
2024-04-18T16:25:31.853Z,95.22
2024-04-18T16:28:02.375Z,100.00
2024-04-18T16:30:34.922Z,100.00
2024-04-18T16:33:05.259Z,100.00
2024-04-18T16:35:35.091Z,100.00
2024-04-18T16:38:13.847Z,100.00
2024-04-18T16:40:56.274Z,100.00
2024-04-18T16:43:33.854Z,100.00
2024-04-18T16:46:07.922Z,100.00
2024-04-18T16:48:37.828Z,100.00
2024-04-18T16:51:08.190Z,100.00
2024-04-18T16:53:56.526Z,100.00
2024-04-18T16:56:24.896Z,100.00
2024-04-18T16:58:57.642Z,100.00
2024-04-18T17:01:30.077Z,100.00
2024-04-18T17:03:59.995Z,100.00
2024-04-18T17:06:41.833Z,100.00
2024-04-18T17:09:18.342Z,100.00
2024-04-18T17:11:48.417Z,100.00
2024-04-18T17:14:53.963Z,100.00
2024-04-18T17:17:26.470Z,100.00
2024-04-18T17:19:59.011Z,100.00
2024-04-18T17:22:28.844Z,100.00
2024-04-18T17:24:58.762Z,100.00
2024-04-18T17:27:28.783Z,100.00
2024-04-18T17:29:58.617Z,100.00
2024-04-18T17:32:31.334Z,100.00
2024-04-18T17:35:21.121Z,100.00
2024-04-18T17:38:12.365Z,100.00
2024-04-18T17:41:02.539Z,100.00
2024-04-18T17:43:33.519Z,100.00
2024-04-18T17:46:03.391Z,100.00
2024-04-18T17:48:49.739Z,100.00
2024-04-18T17:51:19.775Z,100.00
2024-04-18T17:53:49.779Z,100.00
2024-04-18T17:56:19.716Z,100.00
2024-04-18T17:58:49.770Z,100.00
2024-04-18T18:01:19.735Z,100.00
2024-04-18T18:04:12.473Z,100.00
2024-04-18T18:06:42.641Z,100.00
2024-04-18T18:09:12.651Z,100.00
2024-04-18T18:11:42.553Z,100.00
2024-04-18T18:14:12.627Z,100.00
2024-04-18T18:17:01.791Z,100.00
2024-04-18T18:19:34.381Z,100.00
2024-04-18T18:22:04.440Z,100.00
2024-04-18T18:24:34.694Z,100.00
2024-04-18T18:27:04.579Z,100.00
2024-04-18T18:29:31.819Z,100.00
2024-04-18T18:32:14.578Z,100.00
2024-04-18T18:34:46.672Z,100.00
2024-04-18T18:37:17.259Z,100.00
2024-04-18T18:40:05.606Z,100.00
2024-04-18T18:42:35.537Z,100.00
2024-04-18T18:45:02.837Z,100.00
2024-04-18T18:47:32.883Z,100.00
2024-04-18T18:50:21.574Z,100.00
2024-04-18T18:52:52.361Z,100.00
2024-04-18T18:55:39.786Z,100.00
2024-04-18T18:58:09.617Z,100.00
2024-04-18T19:00:37.249Z,100.00
2024-04-18T19:03:14.329Z,100.00
2024-04-18T19:05:50.552Z,100.00
2024-04-18T19:08:20.401Z,100.00
2024-04-18T19:10:53.702Z,100.00
2024-04-18T19:13:23.598Z,100.00
2024-04-18T19:16:00.230Z,100.00
2024-04-18T19:18:30.286Z,100.00
2024-04-18T19:21:00.181Z,100.00
2024-04-18T19:23:39.412Z,100.00
2024-04-18T19:26:07.866Z,100.00
2024-04-18T19:28:37.835Z,100.00
2024-04-18T19:31:06.017Z,100.00
2024-04-18T19:33:36.470Z,100.00
2024-04-18T19:36:06.796Z,100.00
2024-04-18T19:38:37.519Z,100.00
2024-04-18T19:41:26.170Z,100.00
2024-04-18T19:43:53.951Z,100.00
2024-04-18T19:46:26.303Z,100.00
2024-04-18T19:49:10.383Z,100.00
2024-04-18T19:52:05.035Z,100.00
2024-04-18T19:54:34.899Z,100.00
2024-04-18T19:57:05.093Z,100.00
2024-04-18T19:59:32.530Z,100.00
2024-04-18T20:02:02.419Z,100.00
2024-04-18T20:04:29.694Z,100.00
2024-04-18T20:07:02.183Z,100.00
2024-04-18T20:09:30.849Z,100.00
2024-04-18T20:12:02.031Z,100.00
2024-04-18T20:14:29.717Z,100.00
2024-04-18T20:16:59.650Z,100.00
2024-04-18T20:19:27.472Z,100.00
2024-04-18T20:21:57.635Z,100.00
2024-04-18T20:24:29.483Z,100.00
2024-04-18T20:27:17.907Z,100.00
2024-04-18T20:29:45.697Z,100.00
2024-04-18T20:32:25.561Z,100.00
2024-04-18T20:34:53.969Z,100.00
2024-04-18T20:37:24.216Z,100.00
2024-04-18T20:39:57.605Z,100.00
2024-04-18T20:42:29.474Z,100.00
2024-04-18T20:44:59.867Z,100.00
2024-04-18T20:47:30.051Z,100.00
2024-04-18T20:49:57.397Z,100.00
2024-04-18T20:52:27.256Z,100.00
2024-04-18T20:54:57.072Z,100.00
2024-04-18T20:57:27.921Z,100.00
2024-04-18T20:59:55.400Z,100.00
2024-04-18T21:02:26.111Z,100.00
2024-04-18T21:04:53.409Z,100.00
2024-04-18T21:07:23.278Z,100.00
2024-04-18T21:09:50.654Z,100.00
2024-04-18T21:12:24.905Z,100.00
2024-04-18T21:14:52.142Z,100.00
2024-04-18T21:17:21.925Z,100.00
2024-04-18T21:19:49.109Z,100.00
2024-04-18T21:22:18.924Z,100.00
2024-04-18T21:24:46.261Z,100.00
2024-04-18T21:27:16.104Z,100.00
2024-04-18T21:29:45.924Z,100.00
2024-04-18T21:32:15.724Z,100.00
2024-04-18T21:34:42.980Z,100.00
2024-04-18T21:37:12.781Z,100.00
2024-04-18T21:39:40.055Z,100.00
2024-04-18T21:42:10.083Z,100.00
2024-04-18T21:44:38.913Z,100.00
2024-04-18T21:47:11.527Z,100.00
2024-04-18T21:49:38.671Z,100.00
2024-04-18T21:52:08.991Z,100.00
2024-04-18T21:54:36.139Z,100.00
2024-04-18T21:57:07.125Z,100.00
2024-04-18T21:59:36.481Z,100.00
2024-04-18T22:02:06.428Z,100.00
2024-04-18T22:04:36.249Z,100.00
2024-04-18T22:07:09.708Z,100.00
2024-04-18T22:09:36.906Z,100.00
2024-04-18T22:12:06.890Z,100.00
2024-04-18T22:14:34.105Z,100.00
2024-04-18T22:17:03.989Z,100.00
2024-04-18T22:19:31.244Z,100.00
2024-04-18T22:22:03.822Z,100.00
2024-04-18T22:24:31.084Z,100.00
2024-04-18T22:27:00.971Z,100.00
2024-04-18T22:29:28.143Z,100.00
2024-04-18T22:31:58.036Z,100.00
2024-04-18T22:34:34.745Z,100.00
2024-04-18T22:37:06.754Z,100.00
2024-04-18T22:39:36.569Z,100.00
2024-04-18T22:42:04.114Z,100.00
2024-04-18T22:44:33.926Z,100.00
2024-04-18T22:47:01.114Z,100.00
2024-04-18T22:49:31.625Z,100.00
2024-04-18T22:51:58.781Z,100.00
2024-04-18T22:54:31.267Z,100.00
2024-04-18T22:57:16.457Z,100.00
2024-04-18T22:59:47.335Z,100.00
2024-04-18T23:02:14.780Z,100.00
2024-04-18T23:04:44.962Z,100.00
2024-04-18T23:07:12.211Z,100.00
2024-04-18T23:09:44.710Z,100.00
2024-04-18T23:12:11.926Z,100.00
2024-04-18T23:14:41.742Z,100.00
2024-04-18T23:17:08.969Z,100.00
2024-04-18T23:19:38.768Z,100.00
2024-04-18T23:22:06.580Z,100.00
2024-04-18T23:24:45.038Z,100.00
2024-04-18T23:27:13.628Z,100.00
2024-04-18T23:29:43.435Z,100.00
2024-04-18T23:32:11.668Z,100.00
2024-04-18T23:34:41.728Z,100.00
2024-04-18T23:37:11.588Z,100.00
2024-04-18T23:39:42.057Z,100.00
2024-04-18T23:42:12.161Z,100.00
2024-04-18T23:44:39.310Z,100.00
2024-04-18T23:47:09.121Z,100.00
2024-04-18T23:49:36.968Z,100.00
2024-04-18T23:52:07.367Z,100.00
2024-04-18T23:54:34.556Z,100.00
2024-04-18T23:57:07.412Z,100.00
2024-04-18T23:59:34.632Z,100.00
